East Bernstadt, Kentucky
Current Conditions -  °F | °C
As of 5:41 AM on Thursday 27 Nov 2014 (Local Time) from KLOZ Reporting Station
Light Snow Light Snow  
Wind Chill: 28°   Ceiling: 400
Heat Index: 34°   Visibility: 3mi
Dew Point: 31°   Wind: 7mph
Humidity: 89%   Direction: 330°NNW
Pressure: 30.08"   Gusts: NA
Location:  37.19°N, 84.12°W
Report Text: KLOZ 271041Z AUTO 33006KT 3SM -SN BR OVC004 01/M01 A3008 RMK AO2 P0002 T00111006
Loading
Personal Weather Stations






























Interactive Weather Map New forecast layout! Learn more

10-Day Weather Forecast

Advertisements
Track Severe Weather on mobile